createdAt,value
2023-05-13T00:02:11.798Z,12.90
2023-05-13T00:04:40.117Z,11.75
2023-05-13T00:07:10.087Z,10.27
2023-05-13T00:09:38.517Z,7.80
2023-05-13T00:12:07.176Z,8.52
2023-05-13T00:14:35.873Z,9.93
2023-05-13T00:17:05.305Z,9.43
2023-05-13T00:19:33.768Z,9.50
2023-05-13T00:22:01.889Z,14.15
2023-05-13T00:24:31.592Z,16.83
2023-05-13T00:27:00.398Z,27.50
2023-05-13T00:29:28.509Z,20.45
2023-05-13T00:31:56.808Z,31.10
2023-05-13T00:34:25.286Z,35.17
2023-05-13T00:36:53.464Z,30.15
2023-05-13T00:39:23.087Z,16.65
2023-05-13T00:41:52.877Z,9.65
2023-05-13T00:44:21.192Z,11.07
2023-05-13T00:46:50.956Z,6.85
2023-05-13T00:49:19.325Z,9.52
2023-05-13T00:51:47.730Z,11.80
2023-05-13T00:54:16.118Z,7.13
2023-05-13T00:56:44.320Z,7.07
2023-05-13T00:59:14.198Z,10.23
2023-05-13T01:01:54.130Z,8.00
2023-05-13T01:04:31.682Z,14.02
2023-05-13T01:07:10.181Z,11.07
2023-05-13T01:09:48.977Z,13.02
2023-05-13T01:12:22.514Z,10.40
2023-05-13T01:14:59.603Z,7.22
2023-05-13T01:17:35.124Z,7.43
2023-05-13T01:20:05.784Z,9.63
2023-05-13T01:22:35.177Z,6.43
2023-05-13T01:25:03.606Z,8.60
2023-05-13T01:27:32.532Z,8.30
2023-05-13T01:34:42.137Z,7.85
2023-05-13T01:37:10.626Z,9.25
2023-05-13T01:39:42.734Z,6.72
2023-05-13T01:42:15.030Z,9.23
2023-05-13T01:44:44.985Z,6.65
2023-05-13T01:47:13.653Z,6.30
2023-05-13T01:49:42.329Z,8.35
2023-05-13T01:52:10.858Z,8.75
2023-05-13T01:54:41.032Z,8.98
2023-05-13T01:57:12.588Z,7.57
2023-05-13T01:59:41.472Z,8.57
2023-05-13T02:02:09.785Z,8.68
2023-05-13T02:04:38.263Z,8.80
2023-05-13T02:07:06.536Z,6.07
2023-05-13T02:09:34.793Z,6.70
2023-05-13T02:12:04.624Z,7.60
2023-05-13T02:14:32.925Z,8.77
2023-05-13T02:17:03.649Z,9.40
2023-05-13T02:19:31.767Z,7.45
2023-05-13T02:21:59.807Z,9.23
2023-05-13T02:24:28.380Z,8.07
2023-05-13T02:26:56.297Z,8.18
2023-05-13T02:29:26.403Z,8.70
2023-05-13T02:31:55.854Z,11.40
2023-05-13T02:34:24.267Z,8.60
2023-05-13T02:36:52.857Z,7.10
2023-05-13T02:39:21.555Z,9.57
2023-05-13T02:41:49.944Z,11.52
2023-05-13T02:44:18.464Z,13.43
2023-05-13T02:46:48.427Z,10.80
2023-05-13T02:49:16.920Z,8.77
2023-05-13T02:51:45.028Z,8.73
2023-05-13T02:54:13.536Z,8.10
2023-05-13T02:56:41.696Z,9.75
2023-05-13T02:59:10.530Z,6.20
2023-05-13T03:01:39.126Z,11.30
2023-05-13T03:04:09.300Z,10.15
2023-05-13T03:06:37.651Z,7.70
2023-05-13T03:09:06.137Z,7.93
2023-05-13T03:11:34.434Z,9.70
2023-05-13T03:14:02.959Z,9.88
2023-05-13T03:16:30.992Z,9.15
2023-05-13T03:18:59.279Z,12.73
2023-05-13T03:21:29.305Z,8.23
2023-05-13T03:23:57.497Z,8.85
2023-05-13T03:26:27.232Z,7.88
2023-05-13T03:28:55.891Z,8.85
2023-05-13T03:31:24.730Z,7.32
2023-05-13T03:33:53.186Z,8.25
2023-05-13T03:36:21.427Z,7.45
2023-05-13T03:38:51.430Z,7.40
2023-05-13T03:41:19.759Z,9.52
2023-05-13T03:43:49.013Z,7.32
2023-05-13T03:46:18.239Z,9.13
2023-05-13T03:48:46.769Z,8.45
2023-05-13T03:51:17.776Z,6.05
2023-05-13T03:53:46.613Z,8.48
2023-05-13T03:56:17.309Z,7.10
2023-05-13T03:58:46.637Z,7.95
2023-05-13T04:01:14.712Z,10.77
2023-05-13T04:03:45.735Z,8.20
2023-05-13T04:06:14.956Z,8.68
2023-05-13T04:08:43.972Z,8.93
2023-05-13T04:11:12.102Z,8.40
2023-05-13T04:13:43.896Z,7.65
2023-05-13T04:16:11.968Z,7.38
2023-05-13T04:18:40.842Z,6.90
2023-05-13T04:21:09.032Z,11.95
2023-05-13T04:23:37.484Z,7.40
2023-05-13T04:26:05.568Z,7.65
2023-05-13T04:28:34.778Z,8.18
2023-05-13T04:31:05.080Z,8.27
2023-05-13T04:33:36.316Z,8.55
2023-05-13T04:36:04.986Z,10.02
2023-05-13T04:38:33.368Z,9.93
2023-05-13T04:41:02.660Z,11.35
2023-05-13T04:43:39.227Z,8.73
2023-05-13T04:46:08.905Z,8.30
2023-05-13T04:48:37.090Z,10.43
2023-05-13T04:51:05.495Z,7.88
2023-05-13T04:53:34.278Z,11.57
2023-05-13T04:56:06.353Z,13.07
2023-05-13T04:58:34.545Z,10.73
2023-05-13T05:01:03.565Z,8.27
2023-05-13T05:03:33.747Z,9.32
2023-05-13T05:06:02.363Z,6.22
2023-05-13T05:08:31.013Z,7.47
2023-05-13T05:11:01.083Z,11.77
2023-05-13T05:13:30.893Z,8.93
2023-05-13T05:15:59.195Z,10.07
2023-05-13T05:18:27.536Z,8.57
2023-05-13T05:20:57.966Z,7.82
2023-05-13T05:23:27.121Z,11.52
2023-05-13T05:26:04.068Z,11.13
2023-05-13T05:28:40.296Z,11.07
2023-05-13T05:31:09.810Z,11.85
2023-05-13T05:33:38.518Z,16.17
2023-05-13T05:36:10.107Z,12.45
2023-05-13T05:38:38.452Z,11.07
2023-05-13T05:41:08.383Z,12.18
2023-05-13T05:43:38.913Z,11.82
2023-05-13T05:46:07.645Z,15.20
2023-05-13T05:48:36.579Z,11.55
2023-05-13T05:51:06.528Z,16.08
2023-05-13T05:53:41.302Z,10.55
2023-05-13T05:56:12.397Z,11.23
2023-05-13T05:58:40.538Z,11.40
2023-05-13T06:01:09.039Z,11.13
2023-05-13T06:03:37.504Z,8.88
2023-05-13T06:06:06.288Z,9.93
2023-05-13T06:08:35.392Z,9.05
2023-05-13T06:11:05.008Z,8.80
2023-05-13T06:13:33.342Z,9.45
2023-05-13T06:16:01.466Z,11.15
2023-05-13T06:18:30.107Z,9.32
2023-05-13T06:20:58.892Z,11.27
2023-05-13T06:23:27.468Z,8.27
2023-05-13T06:25:55.780Z,13.57
2023-05-13T06:28:25.394Z,9.13
2023-05-13T06:30:54.562Z,7.60
2023-05-13T06:33:23.197Z,7.68
2023-05-13T06:35:51.717Z,9.80
2023-05-13T06:38:22.566Z,10.73
2023-05-13T06:40:55.588Z,8.27
2023-05-13T06:43:32.011Z,19.20
2023-05-13T06:46:08.156Z,10.38
2023-05-13T06:48:36.304Z,8.52
2023-05-13T06:51:07.778Z,8.80
2023-05-13T06:53:36.156Z,9.00
2023-05-13T06:56:04.459Z,7.32
2023-05-13T06:58:34.131Z,9.18
2023-05-13T07:01:02.561Z,8.50
2023-05-13T07:03:31.166Z,7.53
2023-05-13T07:05:59.679Z,5.22
2023-05-13T07:08:28.663Z,5.40
2023-05-13T07:10:56.980Z,9.43
2023-05-13T07:13:51.851Z,6.47
2023-05-13T07:16:20.605Z,7.30
2023-05-13T07:18:48.957Z,4.95
2023-05-13T07:21:21.428Z,6.93
2023-05-13T07:23:49.965Z,5.47
2023-05-13T07:26:18.237Z,10.23
2023-05-13T07:28:46.911Z,5.43
2023-05-13T07:31:16.695Z,6.07
2023-05-13T07:33:44.749Z,6.88
2023-05-13T07:36:13.223Z,6.70
2023-05-13T07:38:41.472Z,5.63
2023-05-13T07:41:10.284Z,6.40
2023-05-13T07:43:40.590Z,7.80
2023-05-13T07:46:08.647Z,7.85
2023-05-13T07:48:38.556Z,5.78
2023-05-13T07:51:07.239Z,6.15
2023-05-13T07:53:35.816Z,6.50
2023-05-13T07:56:04.529Z,6.28
2023-05-13T07:58:33.048Z,7.18
2023-05-13T08:01:01.362Z,4.90
2023-05-13T08:03:29.824Z,8.30
2023-05-13T08:05:59.754Z,7.43
2023-05-13T08:08:28.467Z,8.40
2023-05-13T08:10:58.356Z,7.40
2023-05-13T08:14:17.351Z,6.25
2023-05-13T08:16:46.228Z,6.93
2023-05-13T08:19:15.853Z,7.95
2023-05-13T08:21:46.050Z,9.13
2023-05-13T08:24:14.320Z,8.73
2023-05-13T08:26:42.957Z,8.25
2023-05-13T08:29:14.323Z,9.80
2023-05-13T08:31:43.856Z,11.82
2023-05-13T08:34:12.336Z,12.48
2023-05-13T08:36:40.651Z,7.35
2023-05-13T08:39:10.165Z,7.90
2023-05-13T08:41:39.015Z,9.60
2023-05-13T08:44:08.850Z,7.22
2023-05-13T08:46:39.667Z,5.90
2023-05-13T08:49:09.527Z,8.63
2023-05-13T08:51:38.400Z,10.85
2023-05-13T08:54:10.711Z,12.82
2023-05-13T08:56:40.671Z,14.40
2023-05-13T08:59:08.914Z,8.93
2023-05-13T09:01:37.881Z,7.20
2023-05-13T09:04:09.916Z,10.85
2023-05-13T09:06:38.782Z,18.65
2023-05-13T09:09:07.262Z,8.18
2023-05-13T09:11:35.593Z,10.05
2023-05-13T09:14:07.548Z,13.10
2023-05-13T09:16:36.723Z,6.90
2023-05-13T09:19:07.472Z,12.70
2023-05-13T09:21:37.204Z,7.05
2023-05-13T09:24:11.470Z,8.40
2023-05-13T09:26:40.975Z,7.93
2023-05-13T09:29:23.535Z,8.10
2023-05-13T09:31:54.882Z,6.93
2023-05-13T09:34:27.447Z,8.48
2023-05-13T09:37:03.501Z,8.32
2023-05-13T09:39:35.593Z,9.13
2023-05-13T09:42:05.355Z,6.57
2023-05-13T09:44:35.559Z,6.30
2023-05-13T09:47:03.924Z,7.10
2023-05-13T09:49:33.423Z,8.85
2023-05-13T09:52:02.289Z,7.72
2023-05-13T09:54:36.606Z,6.82
2023-05-13T09:57:06.122Z,7.38
2023-05-13T09:59:37.089Z,4.70
2023-05-13T10:02:07.863Z,5.38
2023-05-13T10:04:40.728Z,6.43
2023-05-13T10:07:11.504Z,4.60
2023-05-13T10:09:41.787Z,5.60
2023-05-13T10:12:13.763Z,5.70
2023-05-13T10:14:44.733Z,7.43
2023-05-13T10:17:13.916Z,5.70
2023-05-13T10:19:43.231Z,5.50
2023-05-13T10:22:13.187Z,4.53
2023-05-13T10:24:43.172Z,4.35
2023-05-13T10:27:12.408Z,5.90
2023-05-13T10:29:42.183Z,5.65
2023-05-13T10:32:12.787Z,5.07
2023-05-13T10:34:43.121Z,8.77
2023-05-13T10:37:27.982Z,5.80
2023-05-13T10:40:14.138Z,6.03
2023-05-13T10:42:44.168Z,8.32
2023-05-13T10:45:12.516Z,3.92
2023-05-13T10:47:43.287Z,4.05
2023-05-13T10:50:25.167Z,4.40
2023-05-13T10:52:57.715Z,6.30
2023-05-13T10:55:28.424Z,5.07
2023-05-13T10:58:09.077Z,5.53
2023-05-13T11:00:39.068Z,4.25
2023-05-13T11:03:30.421Z,5.07
2023-05-13T11:06:16.203Z,12.82
2023-05-13T11:08:46.487Z,5.78
2023-05-13T11:11:30.529Z,7.18
2023-05-13T11:14:10.249Z,5.20
2023-05-13T11:16:38.665Z,6.07
2023-05-13T11:19:20.101Z,6.10
2023-05-13T11:21:51.962Z,6.50
2023-05-13T11:24:21.521Z,5.72
2023-05-13T11:26:50.522Z,5.28
2023-05-13T11:29:30.324Z,4.70
2023-05-13T11:32:00.622Z,5.18
2023-05-13T11:34:32.648Z,5.55
2023-05-13T11:37:09.637Z,5.18
2023-05-13T11:39:40.930Z,5.45
2023-05-13T11:42:10.124Z,4.63
2023-05-13T11:44:47.513Z,4.95
2023-05-13T11:47:16.036Z,6.55
2023-05-13T11:49:48.704Z,4.28
2023-05-13T11:52:19.810Z,4.70
2023-05-13T11:54:49.923Z,5.85
2023-05-13T11:57:25.817Z,9.05
2023-05-13T11:59:56.983Z,5.35
2023-05-13T12:02:26.931Z,4.85
2023-05-13T12:05:02.014Z,8.25
2023-05-13T12:07:30.468Z,5.63
2023-05-13T12:10:00.699Z,5.95
2023-05-13T12:12:31.201Z,5.25
2023-05-13T12:15:02.596Z,6.38
2023-05-13T12:17:32.806Z,4.18
2023-05-13T12:20:11.860Z,4.82
2023-05-13T12:22:52.932Z,6.20
2023-05-13T12:25:40.946Z,5.20
2023-05-13T12:28:10.777Z,6.65
2023-05-13T12:30:39.798Z,6.30
2023-05-13T12:33:14.380Z,7.25
2023-05-13T12:35:45.282Z,5.50
2023-05-13T12:38:18.194Z,7.57
2023-05-13T12:40:47.432Z,5.85
2023-05-13T12:43:18.967Z,6.65
2023-05-13T12:45:48.918Z,6.28
2023-05-13T12:48:17.031Z,10.25
2023-05-13T12:50:46.915Z,11.35
2023-05-13T12:53:15.083Z,10.30
2023-05-13T12:55:44.366Z,12.15
2023-05-13T12:58:13.059Z,8.70
2023-05-13T13:00:42.110Z,8.80
2023-05-13T13:03:10.517Z,7.93
2023-05-13T13:05:39.511Z,12.20
2023-05-13T13:08:11.275Z,6.88
2023-05-13T13:10:39.490Z,10.98
2023-05-13T13:13:07.916Z,10.18
2023-05-13T13:15:35.996Z,10.50
2023-05-13T13:18:04.410Z,12.38
2023-05-13T13:20:33.453Z,9.93
2023-05-13T13:23:03.281Z,9.35
2023-05-13T13:25:33.206Z,8.55
2023-05-13T13:28:01.680Z,7.22
2023-05-13T13:30:30.713Z,11.50
2023-05-13T13:32:59.125Z,8.10
2023-05-13T13:35:27.609Z,8.35
2023-05-13T13:37:56.092Z,9.90
2023-05-13T13:40:24.600Z,8.32
2023-05-13T13:42:54.624Z,11.30
2023-05-13T13:45:24.581Z,10.55
2023-05-13T13:47:52.982Z,10.13
2023-05-13T13:50:21.394Z,7.60
2023-05-13T13:52:52.681Z,9.75
2023-05-13T13:55:21.252Z,11.52
2023-05-13T13:57:49.506Z,7.55
2023-05-13T14:00:19.869Z,9.90
2023-05-13T14:02:48.870Z,7.57
2023-05-13T14:05:17.878Z,10.43
2023-05-13T14:07:46.456Z,7.10
2023-05-13T14:10:14.621Z,12.23
2023-05-13T14:12:42.897Z,10.00
2023-05-13T14:15:11.681Z,6.35
2023-05-13T14:17:41.417Z,7.00
2023-05-13T14:20:12.408Z,6.60
2023-05-13T14:22:40.810Z,6.20
2023-05-13T14:25:09.843Z,7.10
2023-05-13T14:27:38.202Z,7.68
2023-05-13T14:30:07.932Z,9.30
2023-05-13T14:32:36.601Z,13.90
2023-05-13T14:35:08.131Z,14.32
2023-05-13T14:37:36.211Z,18.17
2023-05-13T14:40:04.596Z,12.50
2023-05-13T14:42:33.099Z,9.48
2023-05-13T14:45:01.178Z,7.85
2023-05-13T14:47:29.733Z,6.55
2023-05-13T14:50:01.090Z,6.28
2023-05-13T14:52:31.179Z,7.13
2023-05-13T14:54:59.285Z,7.10
2023-05-13T14:57:27.839Z,7.32
2023-05-13T14:59:57.572Z,7.57
2023-05-13T15:02:27.184Z,6.57
2023-05-13T15:04:56.026Z,6.72
2023-05-13T15:07:24.413Z,7.13
2023-05-13T15:09:54.444Z,6.78
2023-05-13T15:12:24.221Z,6.90
2023-05-13T15:14:55.865Z,9.65
2023-05-13T15:17:24.011Z,10.30
2023-05-13T15:19:52.433Z,10.68
2023-05-13T15:22:20.762Z,9.38
2023-05-13T15:24:49.282Z,15.15
2023-05-13T15:27:19.641Z,10.10
2023-05-13T15:29:47.798Z,9.90
2023-05-13T15:32:16.171Z,7.57
2023-05-13T15:34:45.136Z,9.02
2023-05-13T15:37:13.678Z,10.15
2023-05-13T15:39:42.126Z,11.50
2023-05-13T15:42:10.090Z,12.27
2023-05-13T15:44:41.638Z,13.55
2023-05-13T15:47:10.144Z,12.65
2023-05-13T15:49:38.885Z,10.70
2023-05-13T15:52:07.405Z,12.02
2023-05-13T15:54:36.068Z,9.63
2023-05-13T15:57:04.749Z,8.52
2023-05-13T15:59:32.870Z,10.02
2023-05-13T16:02:03.199Z,10.90
2023-05-13T16:04:31.445Z,9.73
2023-05-13T16:06:59.922Z,8.40
2023-05-13T16:09:28.378Z,8.57
2023-05-13T16:12:00.579Z,11.45
2023-05-13T16:14:29.454Z,10.38
2023-05-13T16:16:57.823Z,7.90
2023-05-13T16:19:27.718Z,8.27
2023-05-13T16:21:56.418Z,8.23
2023-05-13T16:24:24.878Z,11.43
2023-05-13T16:26:53.111Z,10.88
2023-05-13T16:29:21.633Z,9.95
2023-05-13T16:31:49.830Z,9.75
2023-05-13T16:34:19.329Z,14.75
2023-05-13T16:36:49.340Z,9.63
2023-05-13T16:39:17.886Z,8.52
2023-05-13T16:41:46.708Z,9.15
2023-05-13T16:44:15.071Z,13.70
2023-05-13T16:46:43.759Z,9.52
2023-05-13T16:49:12.178Z,9.15
2023-05-13T16:51:40.780Z,9.90
2023-05-13T16:54:11.049Z,10.30
2023-05-13T16:56:39.523Z,17.50
2023-05-13T16:59:10.654Z,11.70
2023-05-13T17:01:39.014Z,11.50
2023-05-13T17:04:07.905Z,12.90
2023-05-13T17:06:36.012Z,12.00
2023-05-13T17:09:04.278Z,9.63
2023-05-13T17:11:34.565Z,15.80
2023-05-13T17:14:02.976Z,12.43
2023-05-13T17:16:31.588Z,15.38
2023-05-13T17:19:00.036Z,13.38
2023-05-13T17:21:28.928Z,9.70
2023-05-13T17:23:57.298Z,9.68
2023-05-13T17:26:26.331Z,11.27
2023-05-13T17:28:56.714Z,12.63
2023-05-13T17:31:26.050Z,13.48
2023-05-13T17:33:54.517Z,13.55
2023-05-13T17:36:23.102Z,13.65
2023-05-13T17:38:51.696Z,22.27
2023-05-13T17:41:20.085Z,13.85
2023-05-13T17:43:48.573Z,16.42
2023-05-13T17:46:18.247Z,13.65
2023-05-13T17:48:47.021Z,18.40
2023-05-13T17:51:15.215Z,13.70
2023-05-13T17:53:43.810Z,11.73
2023-05-13T17:56:13.483Z,12.98
2023-05-13T17:58:41.990Z,12.18
2023-05-13T18:01:10.572Z,11.68
2023-05-13T18:03:40.739Z,16.55
2023-05-13T18:06:09.611Z,12.63
2023-05-13T18:08:37.924Z,9.23
2023-05-13T18:11:06.292Z,11.63
2023-05-13T18:13:36.268Z,10.57
2023-05-13T18:16:06.209Z,12.30
2023-05-13T18:18:34.495Z,15.30
2023-05-13T18:21:04.344Z,13.40
2023-05-13T18:23:33.169Z,14.95
2023-05-13T18:26:01.370Z,9.57
2023-05-13T18:28:29.445Z,14.85
2023-05-13T18:30:57.788Z,15.98
2023-05-13T18:33:26.165Z,15.43
2023-05-13T18:35:54.484Z,16.42
2023-05-13T18:38:24.607Z,25.90
2023-05-13T18:40:53.303Z,25.10
2023-05-13T18:43:21.561Z,28.90
2023-05-13T18:45:49.710Z,19.00
2023-05-13T18:48:18.105Z,21.02
2023-05-13T18:50:46.395Z,24.08
2023-05-13T18:53:14.572Z,20.23
2023-05-13T18:55:44.457Z,19.75
2023-05-13T18:58:13.561Z,23.17
2023-05-13T19:00:41.872Z,22.65
2023-05-13T19:03:10.112Z,14.95
2023-05-13T19:05:38.298Z,12.63
2023-05-13T19:08:08.116Z,14.25
2023-05-13T19:10:39.958Z,14.25
2023-05-13T19:13:10.596Z,11.43
2023-05-13T19:15:42.702Z,12.95
2023-05-13T19:18:10.965Z,11.43
2023-05-13T19:20:39.157Z,14.38
2023-05-13T19:23:07.470Z,12.63
2023-05-13T19:25:35.876Z,14.95
2023-05-13T19:28:04.251Z,11.93
2023-05-13T19:30:34.136Z,12.73
2023-05-13T19:33:03.064Z,11.70
2023-05-13T19:35:32.974Z,13.43
2023-05-13T19:38:02.856Z,13.88
2023-05-13T19:40:31.019Z,13.93
2023-05-13T19:42:59.562Z,14.27
2023-05-13T19:45:27.928Z,14.77
2023-05-13T19:47:57.745Z,14.23
2023-05-13T19:50:27.130Z,15.85
2023-05-13T19:52:55.688Z,13.27
2023-05-13T19:55:24.158Z,13.35
2023-05-13T19:57:52.842Z,13.20
2023-05-13T20:00:23.198Z,13.73
2023-05-13T20:02:52.027Z,12.65
2023-05-13T20:05:21.877Z,16.98
2023-05-13T20:07:50.542Z,31.63
2023-05-13T20:10:18.887Z,12.40
2023-05-13T20:12:46.996Z,13.85
2023-05-13T20:15:16.677Z,16.70
2023-05-13T20:17:47.014Z,10.93
2023-05-13T20:20:15.535Z,12.25
2023-05-13T20:22:45.335Z,15.85
2023-05-13T20:25:14.476Z,16.48
2023-05-13T20:27:43.101Z,16.17
2023-05-13T20:30:12.524Z,15.60
2023-05-13T20:32:40.554Z,15.38
2023-05-13T20:35:10.203Z,15.52
2023-05-13T20:37:38.450Z,12.20
2023-05-13T20:40:09.799Z,13.18
2023-05-13T20:42:38.635Z,15.02
2023-05-13T20:45:08.773Z,15.15
2023-05-13T20:47:37.319Z,17.67
2023-05-13T20:50:05.783Z,13.65
2023-05-13T20:52:33.916Z,13.70
2023-05-13T20:55:02.421Z,13.85
2023-05-13T20:57:32.263Z,14.07
2023-05-13T21:00:01.003Z,13.73
2023-05-13T21:02:34.264Z,13.88
2023-05-13T21:05:02.631Z,12.10
2023-05-13T21:07:31.371Z,13.73
2023-05-13T21:09:59.951Z,16.48
2023-05-13T21:12:28.201Z,17.33
2023-05-13T21:14:57.930Z,17.63
2023-05-13T21:17:26.952Z,25.10
2023-05-13T21:19:56.046Z,19.58
2023-05-13T21:22:23.982Z,18.58
2023-05-13T21:24:52.110Z,15.43
2023-05-13T21:27:20.128Z,14.90
2023-05-13T21:29:48.502Z,14.32
2023-05-13T21:32:19.230Z,14.15
2023-05-13T21:34:48.371Z,13.18
2023-05-13T21:37:16.922Z,14.27
2023-05-13T21:39:45.241Z,13.35
2023-05-13T21:42:13.877Z,15.57
2023-05-13T21:44:42.393Z,14.10
2023-05-13T21:47:12.546Z,16.65
2023-05-13T21:49:41.970Z,17.05
2023-05-13T21:52:10.881Z,16.52
2023-05-13T21:54:39.278Z,22.17
2023-05-13T21:57:08.992Z,20.05
2023-05-13T21:59:37.356Z,18.55
2023-05-13T22:02:05.887Z,17.38
2023-05-13T22:04:34.233Z,17.52
2023-05-13T22:07:04.340Z,18.75
2023-05-13T22:09:32.891Z,17.13
2023-05-13T22:12:01.312Z,19.30
2023-05-13T22:14:29.878Z,14.88
2023-05-13T22:17:08.393Z,15.77
2023-05-13T22:19:38.434Z,15.18
2023-05-13T22:22:08.289Z,16.95
2023-05-13T22:24:36.779Z,17.30
2023-05-13T22:27:05.410Z,17.40
2023-05-13T22:29:36.377Z,18.17
2023-05-13T22:32:04.815Z,17.45
2023-05-13T22:34:34.166Z,18.98
2023-05-13T22:37:02.601Z,20.17
2023-05-13T22:39:32.065Z,18.23
2023-05-13T22:42:00.449Z,19.48
2023-05-13T22:44:29.109Z,20.45
2023-05-13T22:46:57.371Z,20.05
2023-05-13T22:49:25.800Z,19.83
2023-05-13T22:51:54.242Z,18.13
2023-05-13T22:54:22.435Z,23.98
2023-05-13T22:56:52.176Z,25.08
2023-05-13T22:59:20.605Z,21.20
2023-05-13T23:01:48.953Z,23.20
2023-05-13T23:04:17.090Z,18.10
2023-05-13T23:06:45.530Z,17.83
2023-05-13T23:09:13.881Z,19.15
2023-05-13T23:11:42.078Z,21.52
2023-05-13T23:14:11.582Z,25.23
2023-05-13T23:16:40.248Z,19.80
2023-05-13T23:19:08.296Z,22.83
2023-05-13T23:21:37.204Z,21.58
2023-05-13T23:24:05.364Z,16.20
2023-05-13T23:26:33.464Z,16.83
2023-05-13T23:29:01.956Z,17.27
2023-05-13T23:31:31.721Z,16.35
2023-05-13T23:34:00.446Z,20.50
2023-05-13T23:36:28.749Z,23.25
2023-05-13T23:38:57.165Z,20.60
2023-05-13T23:41:25.130Z,14.77
2023-05-13T23:43:53.531Z,20.42
2023-05-13T23:46:22.105Z,19.90
2023-05-13T23:48:51.980Z,17.90
2023-05-13T23:51:20.477Z,19.30
2023-05-13T23:53:48.513Z,18.73
2023-05-13T23:56:17.086Z,17.20
2023-05-13T23:58:45.928Z,17.52
